Time;durP1;ratioP1;P1;durP2;ratioP2;P2;SDS_P1;SDS_P2;PMS_P1;PMS_P2;Temp;Humidity;BMP_temperature;BMP_pressure;BME280_temperature;BME280_humidity;BME280_pressure;Samples;Min_cycle;Max_cycle;Signal;HPM_P1;HPM_P2
2021/08/19 00:01:48;;;;;;;1004.38;903.63;;;;;;;;;;5052698;28;20032;-80
2021/08/19 00:04:14;;;;;;;988.60;888.50;;;;;;;;;;5046830;28;20416;-81
2021/08/19 00:06:40;;;;;;;993.65;893.28;;;;;;;;;;5055453;28;20377;-79
2021/08/19 00:09:06;;;;;;;994.85;894.45;;;;;;;;;;5053201;28;20048;-80
2021/08/19 00:11:32;;;;;;;986.47;886.35;;;;;;;;;;5065503;28;20029;-79
2021/08/19 00:13:58;;;;;;;984.05;883.95;;;;;;;;;;5035345;28;20029;-79
2021/08/19 00:16:24;;;;;;;975.95;876.40;;;;;;;;;;5046764;28;20029;-80
2021/08/19 00:18:50;;;;;;;982.83;882.53;;;;;;;;;;5048269;28;20052;-79
2021/08/19 00:21:16;;;;;;;974.58;874.70;;;;;;;;;;5052677;28;20021;-80
2021/08/19 00:23:42;;;;;;;966.47;866.88;;;;;;;;;;5048778;28;20051;-79
2021/08/19 00:26:08;;;;;;;977.65;877.58;;;;;;;;;;5043416;28;20037;-81
2021/08/19 00:28:34;;;;;;;976.75;876.55;;;;;;;;;;5036139;28;20108;-80
2021/08/19 00:31:00;;;;;;;976.55;876.45;;;;;;;;;;5055608;28;20017;-79
2021/08/19 00:33:26;;;;;;;969.67;869.92;;;;;;;;;;5055332;28;20028;-79
2021/08/19 00:35:52;;;;;;;970.10;870.53;;;;;;;;;;5048838;28;20029;-79
2021/08/19 00:38:18;;;;;;;965.55;866.15;;;;;;;;;;5046921;28;20082;-80
2021/08/19 00:40:44;;;;;;;963.95;864.25;;;;;;;;;;5049629;28;20136;-79
2021/08/19 00:43:10;;;;;;;971.55;871.80;;;;;;;;;;5056523;28;20029;-79
2021/08/19 00:45:36;;;;;;;965.45;865.92;;;;;;;;;;5048958;28;20086;-79
2021/08/19 00:48:02;;;;;;;968.92;869.17;;;;;;;;;;5045247;28;20400;-79
2021/08/19 00:50:28;;;;;;;965.08;865.45;;;;;;;;;;5041430;28;20029;-81
2021/08/19 00:52:54;;;;;;;963.45;864.05;;;;;;;;;;5059703;28;20021;-79
2021/08/19 00:55:20;;;;;;;962.65;863.17;;;;;;;;;;5050709;28;20024;-80
2021/08/19 00:57:46;;;;;;;965.45;865.83;;;;;;;;;;5049605;28;20039;-79
2021/08/19 01:00:14;;;;;;;966.50;866.67;;;;;;;;;;5048818;28;20020;-80
2021/08/19 01:02:45;;;;;;;965.90;866.40;;;;;;;;;;5046524;28;20017;-79
2021/08/19 01:05:13;;;;;;;965.53;865.78;;;;;;;;;;5052640;28;20115;-80
2021/08/19 01:07:39;;;;;;;963.53;863.85;;;;;;;;;;5061203;28;20061;-79
2021/08/19 01:10:06;;;;;;;958.63;859.35;;;;;;;;;;5047569;28;20049;-79
2021/08/19 01:12:31;;;;;;;959.80;860.47;;;;;;;;;;5053651;28;20027;-79
2021/08/19 01:14:57;;;;;;;962.35;863.08;;;;;;;;;;5046093;28;20021;-79
2021/08/19 01:17:26;;;;;;;963.50;864.33;;;;;;;;;;5038432;28;20048;-79
2021/08/19 01:19:52;;;;;;;967.30;867.70;;;;;;;;;;5036170;28;20033;-80
2021/08/19 01:22:19;;;;;;;967.55;867.97;;;;;;;;;;5042182;28;20029;-79
2021/08/19 01:24:45;;;;;;;961.10;861.72;;;;;;;;;;5049258;28;20095;-80
2021/08/19 01:27:18;;;;;;;967.80;868.28;;;;;;;;;;5044235;28;20124;-79
2021/08/19 01:29:45;;;;;;;961.15;861.85;;;;;;;;;;5048050;28;20016;-80
2021/08/19 01:32:12;;;;;;;966.17;866.58;;;;;;;;;;5039939;28;20033;-79
2021/08/19 01:34:38;;;;;;;961.88;862.38;;;;;;;;;;5046601;28;20033;-79
2021/08/19 01:37:05;;;;;;;969.22;869.35;;;;;;;;;;5045939;28;20029;-79
2021/08/19 01:39:31;;;;;;;965.85;866.42;;;;;;;;;;5044582;28;20037;-79
2021/08/19 01:41:57;;;;;;;965.20;865.67;;;;;;;;;;5069932;28;20520;-79
2021/08/19 01:44:23;;;;;;;964.40;864.92;;;;;;;;;;5050229;28;20037;-78
2021/08/19 01:47:02;;;;;;;976.22;876.05;;;;;;;;;;5055352;28;20039;-79
2021/08/19 01:49:28;;;;;;;950.45;851.42;;;;;;;;;;5047930;28;20731;-80
2021/08/19 01:51:55;;;;;;;961.55;862.28;;;;;;;;;;5046873;28;20038;-79
2021/08/19 01:54:22;;;;;;;958.97;859.72;;;;;;;;;;5053099;28;20037;-79
2021/08/19 01:56:48;;;;;;;955.72;856.55;;;;;;;;;;5059481;28;20341;-78
2021/08/19 01:59:14;;;;;;;976.17;875.95;;;;;;;;;;5050541;28;20437;-79
2021/08/19 02:01:40;;;;;;;965.45;866.05;;;;;;;;;;5048975;28;20032;-79
2021/08/19 02:04:06;;;;;;;969.30;869.78;;;;;;;;;;5056016;28;20032;-78
2021/08/19 02:06:32;;;;;;;971.42;871.65;;;;;;;;;;5045316;28;20037;-78
2021/08/19 02:08:58;;;;;;;975.03;875.13;;;;;;;;;;5043934;28;20061;-79
2021/08/19 02:11:25;;;;;;;968.38;868.85;;;;;;;;;;5048205;28;20079;-79
2021/08/19 02:13:51;;;;;;;986.30;885.70;;;;;;;;;;5045309;28;20112;-79
2021/08/19 02:16:17;;;;;;;976.92;877.05;;;;;;;;;;5046203;28;20021;-80
2021/08/19 02:18:43;;;;;;;971.33;871.63;;;;;;;;;;5044360;28;20025;-79
2021/08/19 02:21:09;;;;;;;983.95;883.70;;;;;;;;;;5043427;28;20537;-79
2021/08/19 02:23:35;;;;;;;970.67;871.08;;;;;;;;;;5049131;28;20032;-79
2021/08/19 02:26:02;;;;;;;977.53;877.45;;;;;;;;;;5052677;28;20224;-80
2021/08/19 02:28:27;;;;;;;975.63;875.53;;;;;;;;;;5048775;28;20021;-80
2021/08/19 02:30:53;;;;;;;984.38;881.47;;;;;;;;;;5055210;28;20035;-79
2021/08/19 02:33:19;;;;;;;981.00;880.72;;;;;;;;;;5045126;28;20032;-80
2021/08/19 02:35:45;;;;;;;972.83;873.08;;;;;;;;;;5047380;28;20084;-80
2021/08/19 02:38:11;;;;;;;972.28;872.30;;;;;;;;;;5068470;28;20116;-79
2021/08/19 02:40:40;;;;;;;974.22;874.13;;;;;;;;;;5053163;28;20052;-79
2021/08/19 02:43:06;;;;;;;965.42;865.92;;;;;;;;;;5053131;28;20396;-79
2021/08/19 02:45:32;;;;;;;959.15;859.95;;;;;;;;;;5056083;28;20039;-79
2021/08/19 02:47:58;;;;;;;963.60;864.20;;;;;;;;;;5052255;28;20031;-78
2021/08/19 02:50:24;;;;;;;965.78;866.33;;;;;;;;;;5048735;28;20519;-79
2021/08/19 02:52:50;;;;;;;979.22;878.83;;;;;;;;;;5055506;28;20031;-81
2021/08/19 02:55:16;;;;;;;979.25;878.97;;;;;;;;;;5060488;28;20029;-79
2021/08/19 02:57:42;;;;;;;979.22;879.10;;;;;;;;;;5047628;28;20071;-79
2021/08/19 03:00:08;;;;;;;975.65;875.55;;;;;;;;;;5054700;28;20494;-78
2021/08/19 03:02:34;;;;;;;966.10;866.50;;;;;;;;;;5048835;28;20055;-78
2021/08/19 03:05:00;;;;;;;971.92;872.10;;;;;;;;;;5055115;28;20060;-79
2021/08/19 03:07:26;;;;;;;974.35;874.47;;;;;;;;;;5066732;28;20075;-78
2021/08/19 03:09:52;;;;;;;970.17;870.30;;;;;;;;;;5051551;28;20119;-79
2021/08/19 03:12:18;;;;;;;974.70;875.03;;;;;;;;;;5048164;28;20132;-79
2021/08/19 03:14:44;;;;;;;970.58;871.08;;;;;;;;;;5047452;28;20083;-77
2021/08/19 03:17:10;;;;;;;969.85;870.40;;;;;;;;;;5051533;28;20119;-78
2021/08/19 03:19:37;;;;;;;963.35;864.05;;;;;;;;;;5052831;28;20029;-79
2021/08/19 03:22:03;;;;;;;963.83;864.55;;;;;;;;;;5052000;28;20111;-79
2021/08/19 03:24:30;;;;;;;965.65;866.35;;;;;;;;;;5044889;28;20276;-80
2021/08/19 03:26:57;;;;;;;972.13;872.40;;;;;;;;;;5050564;28;20490;-79
2021/08/19 03:29:23;;;;;;;973.35;873.47;;;;;;;;;;5052249;28;20427;-79
2021/08/19 03:31:50;;;;;;;972.05;872.50;;;;;;;;;;5053386;28;20128;-80
2021/08/19 03:34:17;;;;;;;966.40;866.92;;;;;;;;;;5052881;28;20369;-79
2021/08/19 03:36:43;;;;;;;967.83;868.05;;;;;;;;;;5061141;28;20021;-80
2021/08/19 03:39:09;;;;;;;974.78;874.88;;;;;;;;;;5054726;28;20032;-79
2021/08/19 03:41:36;;;;;;;974.58;874.58;;;;;;;;;;5054352;28;20048;-79
2021/08/19 03:44:02;;;;;;;979.05;878.95;;;;;;;;;;5048648;28;20148;-79
2021/08/19 03:46:29;;;;;;;982.78;882.78;;;;;;;;;;5057412;28;20082;-80
2021/08/19 03:48:59;;;;;;;977.90;877.85;;;;;;;;;;5072430;28;20025;-80
2021/08/19 03:51:27;;;;;;;984.20;884.20;;;;;;;;;;5050034;28;20066;-79
2021/08/19 03:53:55;;;;;;;981.42;881.53;;;;;;;;;;5065731;28;20021;-79
2021/08/19 03:56:21;;;;;;;989.83;889.22;;;;;;;;;;5047542;28;20029;-81
2021/08/19 03:58:47;;;;;;;980.80;880.83;;;;;;;;;;5049258;28;20035;-79
2021/08/19 04:01:15;;;;;;;974.55;874.67;;;;;;;;;;5049386;28;20369;-79
2021/08/19 04:03:42;;;;;;;978.38;878.08;;;;;;;;;;5050619;28;20064;-79
2021/08/19 04:06:08;;;;;;;984.20;883.90;;;;;;;;;;5048612;28;20021;-79
2021/08/19 04:08:34;;;;;;;972.65;873.15;;;;;;;;;;5057413;28;20028;-79
2021/08/19 04:11:00;;;;;;;974.25;874.67;;;;;;;;;;5057608;28;20048;-79
2021/08/19 04:13:26;;;;;;;972.75;873.22;;;;;;;;;;5047758;28;20021;-80
2021/08/19 04:15:52;;;;;;;973.67;874.20;;;;;;;;;;5046537;28;20536;-79
2021/08/19 04:18:19;;;;;;;975.67;875.92;;;;;;;;;;5055241;28;20021;-79
2021/08/19 04:20:45;;;;;;;980.28;880.47;;;;;;;;;;5057203;28;20451;-80
2021/08/19 04:23:11;;;;;;;973.03;873.53;;;;;;;;;;5062536;28;20124;-80
2021/08/19 04:25:37;;;;;;;974.03;874.65;;;;;;;;;;5049034;28;20112;-79
2021/08/19 04:28:03;;;;;;;968.85;869.78;;;;;;;;;;5054544;28;20029;-79
2021/08/19 04:30:29;;;;;;;982.03;881.85;;;;;;;;;;5058042;28;20518;-79
2021/08/19 04:32:55;;;;;;;975.90;876.40;;;;;;;;;;5050711;28;20183;-81
2021/08/19 04:35:21;;;;;;;976.65;877.40;;;;;;;;;;5043085;28;20693;-79
2021/08/19 04:37:47;;;;;;;979.88;880.30;;;;;;;;;;5054974;28;20025;-78
2021/08/19 04:40:13;;;;;;;981.05;881.33;;;;;;;;;;5060926;28;20060;-79
2021/08/19 04:42:39;;;;;;;988.35;888.45;;;;;;;;;;5051176;28;20060;-79
2021/08/19 04:45:05;;;;;;;980.60;880.75;;;;;;;;;;5048930;28;20028;-79
2021/08/19 04:47:31;;;;;;;982.28;882.20;;;;;;;;;;5060681;28;20032;-79
2021/08/19 04:49:57;;;;;;;984.08;884.08;;;;;;;;;;5049797;28;20392;-79
2021/08/19 04:52:23;;;;;;;987.28;887.20;;;;;;;;;;5053178;28;20133;-79
2021/08/19 04:54:49;;;;;;;982.17;882.17;;;;;;;;;;5044417;28;20033;-79
2021/08/19 04:57:15;;;;;;;984.90;885.15;;;;;;;;;;5054641;28;20025;-79
2021/08/19 04:59:41;;;;;;;991.15;890.75;;;;;;;;;;5044998;28;20021;-79
2021/08/19 05:02:07;;;;;;;994.58;893.72;;;;;;;;;;5046930;28;20492;-80
2021/08/19 05:04:33;;;;;;;991.42;891.25;;;;;;;;;;5051734;28;20033;-81
2021/08/19 05:06:59;;;;;;;995.13;894.67;;;;;;;;;;5061899;28;20039;-80
2021/08/19 05:09:25;;;;;;;998.45;897.97;;;;;;;;;;5050681;28;20780;-79
2021/08/19 05:11:51;;;;;;;999.97;899.15;;;;;;;;;;5055336;28;20127;-80
2021/08/19 05:14:17;;;;;;;1000.38;899.75;;;;;;;;;;5046587;28;20531;-80
2021/08/19 05:16:43;;;;;;;996.28;895.80;;;;;;;;;;5051097;28;20104;-79
2021/08/19 05:19:09;;;;;;;990.88;890.55;;;;;;;;;;5048473;28;20028;-80
2021/08/19 05:21:35;;;;;;;994.20;893.50;;;;;;;;;;5047637;28;20036;-79
2021/08/19 05:24:01;;;;;;;992.50;892.35;;;;;;;;;;5063314;28;20115;-81
2021/08/19 05:26:27;;;;;;;995.92;895.42;;;;;;;;;;5071294;28;20051;-81
2021/08/19 05:28:53;;;;;;;994.40;893.70;;;;;;;;;;5053627;28;20480;-80
2021/08/19 05:31:19;;;;;;;990.92;890.75;;;;;;;;;;5045918;28;20112;-80
2021/08/19 05:33:44;;;;;;;985.80;885.25;;;;;;;;;;5044915;28;20075;-80
2021/08/19 05:36:12;;;;;;;987.80;887.88;;;;;;;;;;5050679;28;20029;-79
2021/08/19 05:38:38;;;;;;;991.15;891.15;;;;;;;;;;5051957;28;20153;-79
2021/08/19 05:41:04;;;;;;;992.95;892.60;;;;;;;;;;5040973;28;20528;-79
2021/08/19 05:43:30;;;;;;;986.00;886.25;;;;;;;;;;5054833;28;20370;-79
2021/08/19 05:45:56;;;;;;;991.63;891.75;;;;;;;;;;5045413;28;20052;-80
2021/08/19 05:48:23;;;;;;;1009.22;908.15;;;;;;;;;;5059402;28;20471;-79
2021/08/19 05:50:49;;;;;;;996.80;896.30;;;;;;;;;;5048312;28;20225;-79
2021/08/19 05:53:15;;;;;;;996.22;895.63;;;;;;;;;;5050939;28;20022;-79
2021/08/19 05:55:41;;;;;;;991.08;891.17;;;;;;;;;;5057808;28;20028;-79
2021/08/19 05:58:07;;;;;;;994.70;894.50;;;;;;;;;;5054591;28;20017;-79
2021/08/19 06:00:35;;;;;;;993.40;893.35;;;;;;;;;;5048786;28;20112;-79
2021/08/19 06:03:01;;;;;;;992.88;892.85;;;;;;;;;;5042221;28;20075;-79
2021/08/19 06:05:27;;;;;;;992.15;892.10;;;;;;;;;;5045551;28;20340;-79
2021/08/19 06:07:53;;;;;;;997.13;897.00;;;;;;;;;;5038468;28;20237;-79
2021/08/19 06:10:19;;;;;;;996.95;896.80;;;;;;;;;;5059330;28;20040;-80
2021/08/19 06:12:45;;;;;;;998.40;898.20;;;;;;;;;;5059744;28;20468;-80
2021/08/19 06:15:11;;;;;;;1004.67;904.10;;;;;;;;;;5044770;28;20124;-78
2021/08/19 06:17:37;;;;;;;1002.25;901.97;;;;;;;;;;5063701;28;20631;-79
2021/08/19 06:20:04;;;;;;;998.88;898.75;;;;;;;;;;5057419;28;20024;-80
2021/08/19 06:22:30;;;;;;;997.38;897.30;;;;;;;;;;5044922;28;20024;-80
2021/08/19 06:24:56;;;;;;;1004.00;903.33;;;;;;;;;;5050116;28;20027;-79
2021/08/19 06:27:22;;;;;;;1008.30;907.75;;;;;;;;;;5061538;28;20028;-79
2021/08/19 06:29:48;;;;;;;1009.38;908.72;;;;;;;;;;5054035;28;20667;-79
2021/08/19 06:32:14;;;;;;;1006.72;906.45;;;;;;;;;;5045638;28;20401;-79
2021/08/19 06:34:40;;;;;;;1005.78;905.28;;;;;;;;;;5046464;28;20087;-80
2021/08/19 06:37:06;;;;;;;1008.55;907.85;;;;;;;;;;5048166;28;20480;-79
2021/08/19 06:39:32;;;;;;;1011.20;910.63;;;;;;;;;;5049580;28;20029;-79
2021/08/19 06:41:58;;;;;;;1001.40;901.20;;;;;;;;;;5050438;28;20029;-79
2021/08/19 06:44:24;;;;;;;1010.67;910.13;;;;;;;;;;5050387;28;20392;-79
2021/08/19 06:46:50;;;;;;;1005.55;905.08;;;;;;;;;;5060281;28;20082;-80
2021/08/19 06:49:16;;;;;;;1002.25;901.95;;;;;;;;;;5049344;28;20485;-80
2021/08/19 06:51:42;;;;;;;1006.83;906.53;;;;;;;;;;5050820;28;20494;-79
2021/08/19 06:54:08;;;;;;;1008.53;907.95;;;;;;;;;;5060283;28;20017;-82
2021/08/19 06:56:34;;;;;;;1003.03;902.90;;;;;;;;;;5046839;28;20032;-80
2021/08/19 06:59:00;;;;;;;1013.13;912.22;;;;;;;;;;5045638;28;20032;-80
2021/08/19 07:01:26;;;;;;;1015.15;914.38;;;;;;;;;;5048782;28;20028;-80
2021/08/19 07:03:52;;;;;;;1008.83;908.13;;;;;;;;;;5050483;28;20025;-80
2021/08/19 07:06:18;;;;;;;1007.85;907.08;;;;;;;;;;5053974;28;20024;-79
2021/08/19 07:08:45;;;;;;;1011.92;911.30;;;;;;;;;;5046950;28;20029;-80
2021/08/19 07:11:11;;;;;;;1008.83;908.25;;;;;;;;;;5045994;28;20037;-80
2021/08/19 07:13:38;;;;;;;1010.03;909.42;;;;;;;;;;5054508;28;20071;-81
2021/08/19 07:16:04;;;;;;;1013.80;912.92;;;;;;;;;;5049898;28;20078;-79
2021/08/19 07:18:30;;;;;;;1014.47;913.60;;;;;;;;;;5052964;28;20017;-80
2021/08/19 07:20:56;;;;;;;1011.10;910.58;;;;;;;;;;5055590;28;20465;-80
2021/08/19 07:23:22;;;;;;;1017.65;916.58;;;;;;;;;;5044113;28;20359;-82
2021/08/19 07:25:48;;;;;;;1012.58;912.10;;;;;;;;;;5045736;28;20492;-81
2021/08/19 07:28:14;;;;;;;1009.20;908.70;;;;;;;;;;5054624;28;20039;-81
2021/08/19 07:30:40;;;;;;;1016.13;915.38;;;;;;;;;;5048794;28;20032;-80
2021/08/19 07:33:07;;;;;;;1016.60;915.85;;;;;;;;;;5050187;28;20028;-79
2021/08/19 07:35:34;;;;;;;1013.78;913.22;;;;;;;;;;5063543;28;20045;-77
2021/08/19 07:37:59;;;;;;;1016.00;915.08;;;;;;;;;;5059569;28;20606;-78
2021/08/19 07:40:31;;;;;;;1018.38;917.40;;;;;;;;;;5048810;28;20124;-80
2021/08/19 07:42:57;;;;;;;1021.15;920.13;;;;;;;;;;5064988;28;20024;-80
2021/08/19 07:45:24;;;;;;;1015.85;915.35;;;;;;;;;;5053702;28;20024;-77
2021/08/19 07:47:50;;;;;;;1024.13;923.03;;;;;;;;;;5053108;28;20052;-78
2021/08/19 07:50:17;;;;;;;1018.47;917.80;;;;;;;;;;5049430;28;20036;-80
2021/08/19 07:52:43;;;;;;;1018.97;917.95;;;;;;;;;;5049234;28;20024;-78
2021/08/19 07:55:10;;;;;;;1028.47;927.08;;;;;;;;;;5048329;28;20021;-80
2021/08/19 07:57:54;;;;;;;1016.10;915.58;;;;;;;;;;5047040;28;20104;-77
2021/08/19 08:00:21;;;;;;;1026.22;924.97;;;;;;;;;;5046777;28;20028;-78
2021/08/19 08:02:47;;;;;;;1030.18;928.78;;;;;;;;;;5058995;28;20025;-78
2021/08/19 08:05:13;;;;;;;1027.75;926.45;;;;;;;;;;5047808;28;20028;-78
2021/08/19 08:07:39;;;;;;;1025.47;924.60;;;;;;;;;;5049355;28;20098;-79
2021/08/19 08:10:06;;;;;;;1023.55;922.70;;;;;;;;;;5048502;28;20047;-78
2021/08/19 08:12:32;;;;;;;1030.43;929.15;;;;;;;;;;5050645;28;20074;-78
2021/08/19 08:14:58;;;;;;;1021.85;921.15;;;;;;;;;;5056548;28;20070;-80
2021/08/19 08:17:25;;;;;;;1027.32;926.10;;;;;;;;;;5051088;28;20325;-80
2021/08/19 08:19:51;;;;;;;1028.60;927.42;;;;;;;;;;5046951;28;20163;-79
2021/08/19 08:22:17;;;;;;;1026.55;925.58;;;;;;;;;;5045903;28;20032;-80
2021/08/19 08:24:43;;;;;;;1028.75;927.42;;;;;;;;;;5047190;28;20036;-78
2021/08/19 08:27:09;;;;;;;1028.10;926.95;;;;;;;;;;5047590;28;20048;-80
2021/08/19 08:29:36;;;;;;;1033.55;931.60;;;;;;;;;;5047530;28;20033;-80
2021/08/19 08:32:05;;;;;;;1027.30;926.20;;;;;;;;;;5052015;28;20063;-79
2021/08/19 08:34:32;;;;;;;1036.88;935.22;;;;;;;;;;5049002;28;20380;-80
2021/08/19 08:36:58;;;;;;;1037.00;935.33;;;;;;;;;;5047060;28;20120;-81
2021/08/19 08:39:25;;;;;;;1033.47;931.97;;;;;;;;;;5065970;28;20112;-79
2021/08/19 08:41:52;;;;;;;1026.93;925.72;;;;;;;;;;5046816;28;20461;-80
2021/08/19 08:44:20;;;;;;;1021.85;920.88;;;;;;;;;;5048541;28;20029;-80
2021/08/19 08:46:47;;;;;;;1022.53;921.35;;;;;;;;;;5051601;28;20039;-79
2021/08/19 08:49:14;;;;;;;1034.10;932.10;;;;;;;;;;5050560;28;20079;-80
2021/08/19 08:51:46;;;;;;;1035.72;931.28;;;;;;;;;;5042321;28;20037;-80
2021/08/19 08:54:12;;;;;;;1031.63;930.20;;;;;;;;;;5048658;28;20063;-80
2021/08/19 08:56:38;;;;;;;1027.75;926.72;;;;;;;;;;5052202;28;20048;-79
2021/08/19 08:59:05;;;;;;;1035.78;934.58;;;;;;;;;;5047032;28;20022;-80
2021/08/19 09:01:31;;;;;;;1030.07;929.03;;;;;;;;;;5045233;28;20033;-80
2021/08/19 09:03:57;;;;;;;1038.03;936.53;;;;;;;;;;5047073;28;20051;-80
2021/08/19 09:06:42;;;;;;;1041.13;939.65;;;;;;;;;;5046745;28;20053;-79
2021/08/19 09:09:19;;;;;;;1039.03;937.58;;;;;;;;;;5046996;28;20427;-78
2021/08/19 09:11:55;;;;;;;1041.47;940.00;;;;;;;;;;5046688;28;20467;-78
2021/08/19 09:14:24;;;;;;;1039.43;938.20;;;;;;;;;;5048948;28;20078;-79
2021/08/19 09:16:54;;;;;;;1044.88;942.90;;;;;;;;;;5063298;28;20488;-80
2021/08/19 09:19:21;;;;;;;1050.00;947.92;;;;;;;;;;5052040;28;20074;-80
2021/08/19 09:21:51;;;;;;;1037.57;936.30;;;;;;;;;;5048826;28;20033;-80
2021/08/19 09:24:22;;;;;;;1039.30;938.13;;;;;;;;;;5070048;28;20059;-80
2021/08/19 09:26:48;;;;;;;;;;;;;;;;;;5071863;28;20025;-78
2021/08/19 09:29:22;;;;;;;1029.07;927.97;;;;;;;;;;5056394;28;20522;-79
2021/08/19 09:31:49;;;;;;;1030.13;928.90;;;;;;;;;;5052738;28;20439;-77
2021/08/19 09:34:15;;;;;;;1047.95;946.08;;;;;;;;;;5051322;28;20025;-82
2021/08/19 09:36:41;;;;;;;1054.03;951.83;;;;;;;;;;5052403;28;20036;-79
2021/08/19 09:39:08;;;;;;;1054.85;952.78;;;;;;;;;;5052833;28;20017;-82
2021/08/19 09:41:50;;;;;;;1054.88;952.90;;;;;;;;;;5052551;28;20029;-81
2021/08/19 09:44:29;;;;;;;1056.65;954.72;;;;;;;;;;5038830;28;20024;-84
2021/08/19 09:46:55;;;;;;;1058.15;955.78;;;;;;;;;;5072245;28;20029;-83
2021/08/19 09:49:28;;;;;;;1056.53;954.78;;;;;;;;;;5072119;28;20068;-84
2021/08/19 09:52:05;;;;;;;1065.28;962.97;;;;;;;;;;5067756;28;20487;-82
2021/08/19 09:54:32;;;;;;;1068.25;965.60;;;;;;;;;;5052960;28;20091;-85
2021/08/19 09:56:58;;;;;;;1064.28;961.72;;;;;;;;;;5072369;28;20479;-85
2021/08/19 09:59:28;;;;;;;1067.22;964.42;;;;;;;;;;5055650;28;20369;-87
2021/08/19 10:01:57;;;;;;;1074.60;971.30;;;;;;;;;;5052915;28;20021;-85
2021/08/19 10:04:25;;;;;;;1073.28;970.28;;;;;;;;;;5054328;28;20040;-84
2021/08/19 10:06:51;;;;;;;1069.60;967.00;;;;;;;;;;5051779;28;20033;-85
2021/08/19 10:09:17;;;;;;;1073.35;970.25;;;;;;;;;;5039030;28;20056;-84
2021/08/19 10:11:45;;;;;;;1077.80;974.17;;;;;;;;;;5055904;28;20098;-86
2021/08/19 10:14:14;;;;;;;1078.68;975.50;;;;;;;;;;5048187;28;20633;-88
2021/08/19 10:16:41;;;;;;;1072.65;969.78;;;;;;;;;;5057782;28;20025;-87
2021/08/19 10:19:12;;;;;;;1066.10;963.28;;;;;;;;;;5066861;28;20111;-85
2021/08/19 10:21:40;;;;;;;1069.28;966.63;;;;;;;;;;5032718;28;20037;-88
2021/08/19 10:24:07;;;;;;;1074.20;970.72;;;;;;;;;;5042161;28;20293;-86
2021/08/19 10:26:33;;;;;;;1070.07;967.50;;;;;;;;;;5072716;28;20024;-82
2021/08/19 10:29:00;;;;;;;1067.13;964.53;;;;;;;;;;5071491;28;20029;-84
2021/08/19 10:31:39;;;;;;;1074.65;971.63;;;;;;;;;;5059258;28;20112;-86
2021/08/19 10:34:07;;;;;;;1068.00;964.88;;;;;;;;;;5053199;28;20021;-87
2021/08/19 10:36:40;;;;;;;1078.28;975.20;;;;;;;;;;5051735;28;20079;-86
2021/08/19 10:39:23;;;;;;;1070.53;967.97;;;;;;;;;;5052470;28;20021;-88
2021/08/19 10:41:50;;;;;;;1072.45;969.53;;;;;;;;;;5048376;28;20064;-84
2021/08/19 10:44:16;;;;;;;1075.55;972.38;;;;;;;;;;5051031;28;20053;-84
2021/08/19 10:46:43;;;;;;;1078.15;974.88;;;;;;;;;;5071744;28;20032;-84
2021/08/19 10:49:39;;;;;;;1073.88;971.20;;;;;;;;;;5061997;28;20041;-87
2021/08/19 10:52:14;;;;;;;1073.80;970.42;;;;;;;;;;5042611;28;20623;-87
2021/08/19 10:54:41;;;;;;;1067.47;965.10;;;;;;;;;;5055407;28;20033;-87
2021/08/19 10:57:30;;;;;;;1076.25;973.10;;;;;;;;;;5071275;28;20155;-84
2021/08/19 10:59:57;;;;;;;1058.72;956.85;;;;;;;;;;5065481;28;20424;-85
2021/08/19 11:02:42;;;;;;;1066.43;963.97;;;;;;;;;;5051000;28;20037;-85
2021/08/19 11:05:10;;;;;;;1066.47;963.83;;;;;;;;;;5059218;28;20381;-84
2021/08/19 11:07:49;;;;;;;1072.65;969.35;;;;;;;;;;5074732;28;20024;-87
2021/08/19 11:10:19;;;;;;;1069.35;966.58;;;;;;;;;;5056027;28;20480;-84
2021/08/19 11:12:46;;;;;;;1069.00;966.40;;;;;;;;;;5054679;28;20048;-84
2021/08/19 11:15:12;;;;;;;1076.18;973.00;;;;;;;;;;5054370;28;20103;-85
2021/08/19 11:17:38;;;;;;;1070.88;968.10;;;;;;;;;;5054345;28;20029;-84
2021/08/19 11:20:23;;;;;;;1074.45;971.40;;;;;;;;;;5057002;28;20042;-84
2021/08/19 11:23:20;;;;;;;1069.70;966.97;;;;;;;;;;5053390;28;20083;-87
2021/08/19 11:25:46;;;;;;;1062.22;960.10;;;;;;;;;;5054927;28;20021;-88
2021/08/19 11:28:12;;;;;;;1066.32;963.97;;;;;;;;;;5054556;28;20036;-83
2021/08/19 11:30:49;;;;;;;1070.32;967.67;;;;;;;;;;5054368;28;20025;-85
2021/08/19 11:33:26;;;;;;;1078.22;975.13;;;;;;;;;;5064903;28;20021;-85
2021/08/19 11:35:54;;;;;;;1073.80;971.15;;;;;;;;;;5055396;28;20475;-84
2021/08/19 11:38:21;;;;;;;1078.20;975.53;;;;;;;;;;5054930;28;20025;-85
2021/08/19 11:40:48;;;;;;;1082.53;979.17;;;;;;;;;;5056755;28;20036;-85
2021/08/19 11:43:25;;;;;;;1085.43;982.22;;;;;;;;;;5050416;28;20765;-85
2021/08/19 11:45:57;;;;;;;1074.90;972.33;;;;;;;;;;5060071;28;20366;-84
2021/08/19 11:48:23;;;;;;;1077.25;974.25;;;;;;;;;;5059136;28;20120;-86
2021/08/19 11:50:57;;;;;;;1074.35;971.60;;;;;;;;;;5064316;28;20032;-85
2021/08/19 11:53:23;;;;;;;1080.57;977.50;;;;;;;;;;5054481;28;20032;-85
2021/08/19 11:55:50;;;;;;;1082.55;979.33;;;;;;;;;;5056041;28;20025;-86
2021/08/19 11:58:20;;;;;;;1088.20;984.60;;;;;;;;;;5055624;28;20021;-83
2021/08/19 12:01:08;;;;;;;1080.88;977.67;;;;;;;;;;5054087;28;20025;-85
2021/08/19 12:03:39;;;;;;;1083.57;980.35;;;;;;;;;;5054325;28;20476;-87
2021/08/19 12:06:10;;;;;;;1081.57;978.30;;;;;;;;;;5053917;28;20021;-81
2021/08/19 12:08:37;;;;;;;1076.93;974.03;;;;;;;;;;5067150;28;20035;-84
2021/08/19 12:11:04;;;;;;;1078.38;975.53;;;;;;;;;;5046828;28;20052;-85
2021/08/19 12:13:33;;;;;;;1079.57;976.58;;;;;;;;;;5043891;28;20481;-86
2021/08/19 12:15:59;;;;;;;1080.15;977.20;;;;;;;;;;5046602;28;20096;-87
2021/08/19 12:18:25;;;;;;;1079.28;976.50;;;;;;;;;;5047211;28;20416;-84
2021/08/19 12:20:52;;;;;;;1080.85;977.85;;;;;;;;;;5057209;28;20375;-84
2021/08/19 12:23:19;;;;;;;1078.65;975.83;;;;;;;;;;5049965;28;20035;-86
2021/08/19 12:25:45;;;;;;;1077.30;974.20;;;;;;;;;;5047369;28;20040;-85
2021/08/19 12:28:12;;;;;;;1090.10;986.30;;;;;;;;;;5046549;28;20369;-87
2021/08/19 12:30:57;;;;;;;1078.93;975.88;;;;;;;;;;5048959;28;20021;-86
2021/08/19 12:33:41;;;;;;;1083.57;980.25;;;;;;;;;;5052560;28;20064;-85
2021/08/19 12:39:15;;;;;;;1066.30;963.75;;;;;;;;;;5054350;28;20059;-88
2021/08/19 12:41:42;;;;;;;1066.95;964.22;;;;;;;;;;5071607;28;20040;-88
2021/08/19 12:44:09;;;;;;;1070.00;967.20;;;;;;;;;;5049679;28;20025;-82
2021/08/19 12:46:42;;;;;;;1067.50;964.60;;;;;;;;;;5048484;28;20044;-82
2021/08/19 12:49:27;;;;;;;1063.70;961.33;;;;;;;;;;5044860;28;20033;-82
2021/08/19 12:52:13;;;;;;;1054.90;952.92;;;;;;;;;;5042106;28;20273;-83
2021/08/19 12:54:39;;;;;;;1055.15;952.90;;;;;;;;;;5047079;28;20032;-83
2021/08/19 12:57:05;;;;;;;1061.93;959.58;;;;;;;;;;5047164;28;20435;-82
2021/08/19 12:59:34;;;;;;;1059.55;957.47;;;;;;;;;;5046862;28;20029;-81
2021/08/19 13:02:01;;;;;;;1056.60;954.53;;;;;;;;;;5046911;28;20024;-82
2021/08/19 13:04:27;;;;;;;1054.43;952.60;;;;;;;;;;5051685;28;20111;-81
2021/08/19 13:06:53;;;;;;;1053.60;951.60;;;;;;;;;;5066583;28;20451;-81
2021/08/19 13:09:19;;;;;;;1053.47;951.60;;;;;;;;;;5067893;28;20306;-81
2021/08/19 13:11:45;;;;;;;1050.18;948.55;;;;;;;;;;5060563;28;20039;-81
2021/08/19 13:14:11;;;;;;;1050.15;948.42;;;;;;;;;;5046354;28;20025;-81
2021/08/19 13:16:37;;;;;;;1054.55;952.63;;;;;;;;;;5046789;28;20115;-81
2021/08/19 13:19:03;;;;;;;1055.07;953.15;;;;;;;;;;5046828;28;20490;-82
2021/08/19 13:21:29;;;;;;;1056.97;955.08;;;;;;;;;;5044440;28;20025;-82
2021/08/19 13:23:55;;;;;;;1054.75;952.88;;;;;;;;;;5046309;28;20409;-83
2021/08/19 13:26:23;;;;;;;1061.05;958.97;;;;;;;;;;5047977;28;20043;-81
2021/08/19 13:28:49;;;;;;;1067.18;964.85;;;;;;;;;;5045656;28;20033;-81
2021/08/19 13:31:15;;;;;;;1061.80;959.65;;;;;;;;;;5048010;28;20464;-80
2021/08/19 13:33:41;;;;;;;1062.22;960.08;;;;;;;;;;5046565;28;20071;-81
2021/08/19 13:36:07;;;;;;;1069.18;966.67;;;;;;;;;;5046608;28;20404;-81
2021/08/19 13:38:33;;;;;;;1073.95;971.00;;;;;;;;;;5046311;28;20468;-80
2021/08/19 13:40:59;;;;;;;1063.68;961.35;;;;;;;;;;5047719;28;20021;-81
2021/08/19 13:43:25;;;;;;;1064.47;962.10;;;;;;;;;;5046468;28;20421;-82
2021/08/19 13:45:51;;;;;;;1061.13;958.90;;;;;;;;;;5047358;28;20029;-81
2021/08/19 13:48:17;;;;;;;1056.95;954.83;;;;;;;;;;5046405;28;20086;-82
2021/08/19 13:50:44;;;;;;;1065.97;963.40;;;;;;;;;;5046688;28;20025;-83
2021/08/19 13:53:10;;;;;;;1062.07;959.90;;;;;;;;;;5045085;28;20029;-82